sensor_id;sensor_type;location;lat;lon;timestamp;pressure;altitude;pressure_sealevel;temperature;humidity
8075;BME280;4080;42.676;23.372;2023-02-23T13:14:47;94874.56;;;19.72;43.88
8075;BME280;4080;42.676;23.372;2023-02-23T13:17:27;94865.16;;;19.45;43.12
8075;BME280;4080;42.676;23.372;2023-02-23T13:19:58;94875.69;;;19.29;43.39
8075;BME280;4080;42.676;23.372;2023-02-23T13:22:30;94872.91;;;19.17;43.58
8075;BME280;4080;42.676;23.372;2023-02-23T13:25:02;94822.41;;;18.74;43.82
8075;BME280;4080;42.676;23.372;2023-02-23T13:27:39;94876.94;;;19.02;44.23
8075;BME280;4080;42.676;23.372;2023-02-23T13:30:11;94873.66;;;18.97;44.29
8075;BME280;4080;42.676;23.372;2023-02-23T13:32:40;94849.25;;;18.77;43.89
8075;BME280;4080;42.676;23.372;2023-02-23T13:35:13;94860.09;;;18.81;44.19
8075;BME280;4080;42.676;23.372;2023-02-23T13:37:43;94849.53;;;18.84;44.15
8075;BME280;4080;42.676;23.372;2023-02-23T13:40:33;94860.47;;;18.91;43.74
8075;BME280;4080;42.676;23.372;2023-02-23T13:43:08;94869.59;;;18.90;43.42
8075;BME280;4080;42.676;23.372;2023-02-23T13:45:54;94853.69;;;18.73;43.85
8075;BME280;4080;42.676;23.372;2023-02-23T13:48:33;94868.16;;;18.72;43.92
8075;BME280;4080;42.676;23.372;2023-02-23T13:51:07;94873.34;;;18.60;43.61
8075;BME280;4080;42.676;23.372;2023-02-23T13:53:41;94868.19;;;18.55;44.58
8075;BME280;4080;42.676;23.372;2023-02-23T13:56:09;94853.16;;;18.42;44.08
8075;BME280;4080;42.676;23.372;2023-02-23T13:58:45;94868.56;;;18.45;44.18
8075;BME280;4080;42.676;23.372;2023-02-23T14:01:17;94871.41;;;18.40;44.21
8075;BME280;4080;42.676;23.372;2023-02-23T14:03:52;94871.56;;;18.35;44.06
8075;BME280;4080;42.676;23.372;2023-02-23T14:06:22;94827.53;;;18.03;44.01
8075;BME280;4080;42.676;23.372;2023-02-23T14:08:56;94867.81;;;18.27;43.94
8075;BME280;4080;42.676;23.372;2023-02-23T14:11:43;94873.19;;;18.18;44.73
8075;BME280;4080;42.676;23.372;2023-02-23T14:14:15;94878.41;;;18.06;46.19
8075;BME280;4080;42.676;23.372;2023-02-23T14:17:38;94868.38;;;17.86;51.40
8075;BME280;4080;42.676;23.372;2023-02-23T14:20:15;94872.47;;;17.75;52.65
8075;BME280;4080;42.676;23.372;2023-02-23T14:25:51;94878.28;;;17.51;53.19
8075;BME280;4080;42.676;23.372;2023-02-23T14:28:24;94868.06;;;17.35;53.39
8075;BME280;4080;42.676;23.372;2023-02-23T14:31:00;94867.44;;;17.30;53.99
8075;BME280;4080;42.676;23.372;2023-02-23T14:33:50;94873.25;;;17.23;54.47
8075;BME280;4080;42.676;23.372;2023-02-23T14:36:35;94878.53;;;17.06;55.16
8075;BME280;4080;42.676;23.372;2023-02-23T14:39:06;94871.00;;;16.91;55.96
8075;BME280;4080;42.676;23.372;2023-02-23T14:41:39;94872.69;;;16.78;56.64
8075;BME280;4080;42.676;23.372;2023-02-23T14:44:12;94875.41;;;16.56;57.12
8075;BME280;4080;42.676;23.372;2023-02-23T14:46:48;94877.41;;;16.50;58.00
8075;BME280;4080;42.676;23.372;2023-02-23T14:49:19;94872.66;;;16.30;58.57
8075;BME280;4080;42.676;23.372;2023-02-23T14:51:47;94866.91;;;16.14;59.47
8075;BME280;4080;42.676;23.372;2023-02-23T14:54:23;94902.91;;;16.11;60.00
8075;BME280;4080;42.676;23.372;2023-02-23T14:56:52;94887.53;;;15.77;60.63
8075;BME280;4080;42.676;23.372;2023-02-23T14:59:23;94890.66;;;15.79;61.13
8075;BME280;4080;42.676;23.372;2023-02-23T15:01:53;94876.53;;;15.57;61.62
8075;BME280;4080;42.676;23.372;2023-02-23T15:04:23;94869.69;;;15.19;62.69
8075;BME280;4080;42.676;23.372;2023-02-23T15:06:53;94880.00;;;15.21;62.94
8075;BME280;4080;42.676;23.372;2023-02-23T15:09:30;94865.50;;;14.91;63.50
8075;BME280;4080;42.676;23.372;2023-02-23T15:12:01;94917.84;;;15.04;64.18
8075;BME280;4080;42.676;23.372;2023-02-23T15:14:29;94905.84;;;14.93;64.52
8075;BME280;4080;42.676;23.372;2023-02-23T15:16:58;94920.41;;;14.82;65.24
8075;BME280;4080;42.676;23.372;2023-02-23T15:19:26;94921.19;;;14.69;66.14
8075;BME280;4080;42.676;23.372;2023-02-23T15:21:58;94913.13;;;14.60;66.88
8075;BME280;4080;42.676;23.372;2023-02-23T15:24:29;94925.72;;;14.54;67.39
8075;BME280;4080;42.676;23.372;2023-02-23T15:26:56;94925.31;;;14.47;68.22
8075;BME280;4080;42.676;23.372;2023-02-23T15:29:24;94927.03;;;14.38;68.90
8075;BME280;4080;42.676;23.372;2023-02-23T15:31:55;94934.19;;;14.24;69.48
8075;BME280;4080;42.676;23.372;2023-02-23T15:34:24;94937.59;;;14.11;69.82
8075;BME280;4080;42.676;23.372;2023-02-23T15:36:55;94942.31;;;14.14;70.40
8075;BME280;4080;42.676;23.372;2023-02-23T15:39:32;94951.94;;;14.10;70.86
8075;BME280;4080;42.676;23.372;2023-02-23T15:42:02;94952.09;;;13.99;71.41
8075;BME280;4080;42.676;23.372;2023-02-23T15:44:29;94909.25;;;13.60;71.94
8075;BME280;4080;42.676;23.372;2023-02-23T15:46:58;94911.41;;;13.39;73.37
8075;BME280;4080;42.676;23.372;2023-02-23T15:49:27;94960.59;;;13.64;74.80
8075;BME280;4080;42.676;23.372;2023-02-23T15:51:59;94973.72;;;13.55;75.84
8075;BME280;4080;42.676;23.372;2023-02-23T15:54:29;94970.91;;;13.47;76.41
8075;BME280;4080;42.676;23.372;2023-02-23T15:57:02;94940.69;;;13.05;77.65
8075;BME280;4080;42.676;23.372;2023-02-23T15:59:32;94980.63;;;13.32;78.46
8075;BME280;4080;42.676;23.372;2023-02-23T16:02:01;94980.50;;;13.24;79.33
8075;BME280;4080;42.676;23.372;2023-02-23T16:04:38;94986.13;;;13.17;79.96
8075;BME280;4080;42.676;23.372;2023-02-23T16:07:15;94977.25;;;13.03;81.22
8075;BME280;4080;42.676;23.372;2023-02-23T16:09:51;94981.56;;;12.99;81.59
8075;BME280;4080;42.676;23.372;2023-02-23T16:12:21;94963.16;;;12.89;82.11
8075;BME280;4080;42.676;23.372;2023-02-23T16:14:51;94932.00;;;12.57;83.35
8075;BME280;4080;42.676;23.372;2023-02-23T16:17:27;94977.31;;;12.74;84.75
8075;BME280;4080;42.676;23.372;2023-02-23T16:20:02;94995.19;;;12.63;86.64
8075;BME280;4080;42.676;23.372;2023-02-23T16:22:35;94993.38;;;12.59;87.16
8075;BME280;4080;42.676;23.372;2023-02-23T16:25:07;95002.66;;;12.56;87.45
8075;BME280;4080;42.676;23.372;2023-02-23T16:27:37;95000.28;;;12.55;87.79
8075;BME280;4080;42.676;23.372;2023-02-23T16:30:15;94991.66;;;12.44;88.55
8075;BME280;4080;42.676;23.372;2023-02-23T16:32:43;95000.31;;;12.50;88.27
8075;BME280;4080;42.676;23.372;2023-02-23T16:35:15;94958.16;;;12.05;88.96
8075;BME280;4080;42.676;23.372;2023-02-23T16:37:56;95012.59;;;12.40;89.70
8075;BME280;4080;42.676;23.372;2023-02-23T16:40:23;95014.53;;;12.30;90.58
8075;BME280;4080;42.676;23.372;2023-02-23T16:42:50;95012.28;;;12.13;91.53
8075;BME280;4080;42.676;23.372;2023-02-23T16:45:17;95022.59;;;12.15;92.26
8075;BME280;4080;42.676;23.372;2023-02-23T16:47:45;95018.16;;;12.05;92.55
8075;BME280;4080;42.676;23.372;2023-02-23T16:50:16;94998.69;;;11.91;92.96
8075;BME280;4080;42.676;23.372;2023-02-23T16:52:44;95028.47;;;12.06;93.29
8075;BME280;4080;42.676;23.372;2023-02-23T16:55:16;95030.13;;;11.97;94.58
8075;BME280;4080;42.676;23.372;2023-02-23T16:57:44;95007.00;;;11.74;95.39
8075;BME280;4080;42.676;23.372;2023-02-23T17:00:20;95036.78;;;11.90;95.80
8075;BME280;4080;42.676;23.372;2023-02-23T17:02:48;95033.94;;;11.76;96.47
8075;BME280;4080;42.676;23.372;2023-02-23T17:05:17;95039.22;;;11.81;96.82
8075;BME280;4080;42.676;23.372;2023-02-23T17:07:46;95040.78;;;11.77;97.73
8075;BME280;4080;42.676;23.372;2023-02-23T17:10:17;95046.13;;;11.72;98.47
8075;BME280;4080;42.676;23.372;2023-02-23T17:12:51;95036.19;;;11.48;99.30
8075;BME280;4080;42.676;23.372;2023-02-23T17:15:18;95042.50;;;11.52;100.00
8075;BME280;4080;42.676;23.372;2023-02-23T17:17:46;95050.75;;;11.41;100.00
8075;BME280;4080;42.676;23.372;2023-02-23T17:20:13;95059.50;;;11.31;100.00
8075;BME280;4080;42.676;23.372;2023-02-23T17:22:46;95057.91;;;11.30;100.00
8075;BME280;4080;42.676;23.372;2023-02-23T17:25:15;95060.59;;;11.25;100.00
8075;BME280;4080;42.676;23.372;2023-02-23T17:27:42;95052.69;;;11.20;100.00
8075;BME280;4080;42.676;23.372;2023-02-23T17:30:10;95062.22;;;11.16;100.00
8075;BME280;4080;42.676;23.372;2023-02-23T17:32:37;95060.94;;;11.08;100.00
8075;BME280;4080;42.676;23.372;2023-02-23T17:35:04;95047.25;;;10.91;100.00
8075;BME280;4080;42.676;23.372;2023-02-23T17:37:31;95068.34;;;10.96;100.00
8075;BME280;4080;42.676;23.372;2023-02-23T17:40:03;95070.19;;;10.91;100.00
8075;BME280;4080;42.676;23.372;2023-02-23T17:42:31;95070.47;;;10.84;100.00
8075;BME280;4080;42.676;23.372;2023-02-23T17:44:59;95058.34;;;10.83;100.00
8075;BME280;4080;42.676;23.372;2023-02-23T17:47:26;95074.47;;;10.76;100.00
8075;BME280;4080;42.676;23.372;2023-02-23T17:49:54;95071.81;;;10.66;100.00
8075;BME280;4080;42.676;23.372;2023-02-23T17:52:20;95059.69;;;10.65;100.00
8075;BME280;4080;42.676;23.372;2023-02-23T17:54:47;95062.56;;;10.69;100.00
8075;BME280;4080;42.676;23.372;2023-02-23T17:57:14;95046.00;;;10.48;100.00
8075;BME280;4080;42.676;23.372;2023-02-23T17:59:42;95069.47;;;10.54;100.00
8075;BME280;4080;42.676;23.372;2023-02-23T18:02:12;95049.72;;;10.42;100.00
8075;BME280;4080;42.676;23.372;2023-02-23T18:04:39;95065.25;;;10.43;100.00
8075;BME280;4080;42.676;23.372;2023-02-23T18:07:06;95076.59;;;10.44;100.00
8075;BME280;4080;42.676;23.372;2023-02-23T18:09:32;95056.81;;;10.21;100.00
8075;BME280;4080;42.676;23.372;2023-02-23T18:11:59;95066.31;;;10.27;100.00
8075;BME280;4080;42.676;23.372;2023-02-23T18:14:26;95064.72;;;10.21;100.00
8075;BME280;4080;42.676;23.372;2023-02-23T18:16:54;95057.84;;;10.15;100.00
8075;BME280;4080;42.676;23.372;2023-02-23T18:19:22;95071.28;;;10.03;100.00
8075;BME280;4080;42.676;23.372;2023-02-23T18:21:49;95063.09;;;10.00;100.00
8075;BME280;4080;42.676;23.372;2023-02-23T18:24:16;95073.13;;;9.98;100.00
8075;BME280;4080;42.676;23.372;2023-02-23T18:26:43;95067.56;;;9.94;100.00
8075;BME280;4080;42.676;23.372;2023-02-23T18:29:10;95066.00;;;9.88;100.00
8075;BME280;4080;42.676;23.372;2023-02-23T18:31:37;95077.06;;;9.85;100.00
8075;BME280;4080;42.676;23.372;2023-02-23T18:34:05;95040.66;;;9.56;100.00
8075;BME280;4080;42.676;23.372;2023-02-23T18:36:33;95069.16;;;9.85;100.00
8075;BME280;4080;42.676;23.372;2023-02-23T18:39:02;95055.41;;;9.73;100.00
8075;BME280;4080;42.676;23.372;2023-02-23T18:41:29;95073.59;;;9.79;100.00
8075;BME280;4080;42.676;23.372;2023-02-23T18:43:56;95090.75;;;9.82;100.00
8075;BME280;4080;42.676;23.372;2023-02-23T18:46:23;95086.75;;;9.79;100.00
8075;BME280;4080;42.676;23.372;2023-02-23T18:48:50;95068.03;;;9.60;100.00
8075;BME280;4080;42.676;23.372;2023-02-23T18:51:19;95092.56;;;9.71;100.00
8075;BME280;4080;42.676;23.372;2023-02-23T18:53:47;95088.59;;;9.69;100.00
8075;BME280;4080;42.676;23.372;2023-02-23T18:56:15;95089.63;;;9.62;100.00
8075;BME280;4080;42.676;23.372;2023-02-23T18:58:48;95082.22;;;9.49;100.00
8075;BME280;4080;42.676;23.372;2023-02-23T19:01:17;95095.63;;;9.48;100.00
8075;BME280;4080;42.676;23.372;2023-02-23T19:03:45;95084.81;;;9.44;100.00
8075;BME280;4080;42.676;23.372;2023-02-23T19:06:13;95099.53;;;9.35;100.00
8075;BME280;4080;42.676;23.372;2023-02-23T19:08:42;95101.63;;;9.28;100.00
8075;BME280;4080;42.676;23.372;2023-02-23T19:11:10;95084.94;;;9.07;100.00
8075;BME280;4080;42.676;23.372;2023-02-23T19:13:36;95108.38;;;9.14;100.00
8075;BME280;4080;42.676;23.372;2023-02-23T19:16:04;95122.06;;;9.11;100.00
8075;BME280;4080;42.676;23.372;2023-02-23T19:18:31;95085.13;;;8.90;100.00
8075;BME280;4080;42.676;23.372;2023-02-23T19:21:00;95109.94;;;9.10;100.00
8075;BME280;4080;42.676;23.372;2023-02-23T19:23:27;95116.22;;;9.03;100.00
8075;BME280;4080;42.676;23.372;2023-02-23T19:25:55;95113.59;;;9.03;100.00
8075;BME280;4080;42.676;23.372;2023-02-23T19:28:23;95101.91;;;8.84;100.00
8075;BME280;4080;42.676;23.372;2023-02-23T19:31:00;95124.34;;;8.92;100.00
8075;BME280;4080;42.676;23.372;2023-02-23T19:33:27;95145.03;;;8.83;100.00
8075;BME280;4080;42.676;23.372;2023-02-23T19:35:54;95141.34;;;8.84;100.00
8075;BME280;4080;42.676;23.372;2023-02-23T19:38:20;95121.16;;;8.90;100.00
8075;BME280;4080;42.676;23.372;2023-02-23T19:40:47;95121.63;;;8.82;100.00
8075;BME280;4080;42.676;23.372;2023-02-23T19:43:15;95137.94;;;8.84;100.00
8075;BME280;4080;42.676;23.372;2023-02-23T19:45:42;95138.44;;;8.81;100.00
8075;BME280;4080;42.676;23.372;2023-02-23T19:48:10;95154.19;;;8.76;100.00
8075;BME280;4080;42.676;23.372;2023-02-23T19:50:37;95143.63;;;8.70;100.00
8075;BME280;4080;42.676;23.372;2023-02-23T19:53:04;95153.38;;;8.70;100.00
8075;BME280;4080;42.676;23.372;2023-02-23T19:55:31;95133.59;;;8.62;100.00
8075;BME280;4080;42.676;23.372;2023-02-23T19:57:57;95141.47;;;8.62;100.00
8075;BME280;4080;42.676;23.372;2023-02-23T20:00:26;95130.69;;;8.59;100.00
8075;BME280;4080;42.676;23.372;2023-02-23T20:02:52;95148.09;;;8.70;100.00
8075;BME280;4080;42.676;23.372;2023-02-23T20:05:21;95146.75;;;8.62;100.00
8075;BME280;4080;42.676;23.372;2023-02-23T20:07:50;95153.84;;;8.62;100.00
8075;BME280;4080;42.676;23.372;2023-02-23T20:10:17;95145.34;;;8.55;100.00
8075;BME280;4080;42.676;23.372;2023-02-23T20:12:50;95166.47;;;8.65;100.00
8075;BME280;4080;42.676;23.372;2023-02-23T20:15:17;95141.09;;;8.49;100.00
8075;BME280;4080;42.676;23.372;2023-02-23T20:17:46;95154.38;;;8.64;100.00
8075;BME280;4080;42.676;23.372;2023-02-23T20:20:13;95160.44;;;8.64;100.00
8075;BME280;4080;42.676;23.372;2023-02-23T20:22:41;95111.56;;;8.36;100.00
8075;BME280;4080;42.676;23.372;2023-02-23T20:25:10;95148.06;;;8.65;100.00
8075;BME280;4080;42.676;23.372;2023-02-23T20:27:40;95142.97;;;8.53;100.00
8075;BME280;4080;42.676;23.372;2023-02-23T20:30:09;95108.34;;;8.29;100.00
8075;BME280;4080;42.676;23.372;2023-02-23T20:32:36;95136.06;;;8.42;100.00
8075;BME280;4080;42.676;23.372;2023-02-23T20:35:05;95148.50;;;8.57;100.00
8075;BME280;4080;42.676;23.372;2023-02-23T20:37:32;95141.63;;;8.51;100.00
8075;BME280;4080;42.676;23.372;2023-02-23T20:39:59;95141.66;;;8.56;100.00
8075;BME280;4080;42.676;23.372;2023-02-23T20:42:26;95147.97;;;8.55;100.00
8075;BME280;4080;42.676;23.372;2023-02-23T20:44:53;95144.31;;;8.56;100.00
8075;BME280;4080;42.676;23.372;2023-02-23T20:47:20;95154.28;;;8.54;100.00
8075;BME280;4080;42.676;23.372;2023-02-23T20:49:47;95138.50;;;8.54;100.00
8075;BME280;4080;42.676;23.372;2023-02-23T20:52:16;95144.00;;;8.52;100.00
8075;BME280;4080;42.676;23.372;2023-02-23T20:54:43;95141.38;;;8.52;100.00
8075;BME280;4080;42.676;23.372;2023-02-23T20:57:09;95159.28;;;8.55;100.00
8075;BME280;4080;42.676;23.372;2023-02-23T20:59:36;95144.25;;;8.51;100.00
8075;BME280;4080;42.676;23.372;2023-02-23T21:02:03;95123.41;;;8.39;100.00
8075;BME280;4080;42.676;23.372;2023-02-23T21:04:30;95138.44;;;8.44;100.00
8075;BME280;4080;42.676;23.372;2023-02-23T21:06:59;95091.91;;;8.17;100.00
8075;BME280;4080;42.676;23.372;2023-02-23T21:09:27;95142.94;;;8.48;100.00
8075;BME280;4080;42.676;23.372;2023-02-23T21:11:54;95153.47;;;8.53;100.00
8075;BME280;4080;42.676;23.372;2023-02-23T21:14:21;95141.09;;;8.49;100.00
8075;BME280;4080;42.676;23.372;2023-02-23T21:16:47;95123.66;;;8.37;100.00
8075;BME280;4080;42.676;23.372;2023-02-23T21:19:16;95148.44;;;8.47;100.00
8075;BME280;4080;42.676;23.372;2023-02-23T21:21:45;95122.75;;;8.27;100.00
8075;BME280;4080;42.676;23.372;2023-02-23T21:24:14;95144.22;;;8.46;100.00
8075;BME280;4080;42.676;23.372;2023-02-23T21:26:42;95122.63;;;8.38;100.00
8075;BME280;4080;42.676;23.372;2023-02-23T21:29:09;95142.69;;;8.50;100.00
8075;BME280;4080;42.676;23.372;2023-02-23T21:31:40;95140.59;;;8.52;100.00
8075;BME280;4080;42.676;23.372;2023-02-23T21:34:07;95138.22;;;8.50;100.00
8075;BME280;4080;42.676;23.372;2023-02-23T21:36:35;95124.72;;;8.36;100.00
8075;BME280;4080;42.676;23.372;2023-02-23T21:39:03;95121.94;;;8.26;100.00
8075;BME280;4080;42.676;23.372;2023-02-23T21:41:31;95124.56;;;8.26;100.00
8075;BME280;4080;42.676;23.372;2023-02-23T21:44:00;95133.38;;;8.37;100.00
8075;BME280;4080;42.676;23.372;2023-02-23T21:46:26;95096.63;;;8.15;100.00
8075;BME280;4080;42.676;23.372;2023-02-23T21:48:53;95142.34;;;8.41;100.00
8075;BME280;4080;42.676;23.372;2023-02-23T21:51:20;95153.66;;;8.42;100.00
8075;BME280;4080;42.676;23.372;2023-02-23T21:53:47;95144.97;;;8.41;100.00
8075;BME280;4080;42.676;23.372;2023-02-23T21:56:15;95111.91;;;8.18;100.00
8075;BME280;4080;42.676;23.372;2023-02-23T21:58:44;95151.03;;;8.42;100.00
8075;BME280;4080;42.676;23.372;2023-02-23T22:01:14;95130.22;;;8.35;100.00
8075;BME280;4080;42.676;23.372;2023-02-23T22:03:41;94971.69;;;7.33;100.00
8075;BME280;4080;42.676;23.372;2023-02-23T22:06:09;95148.94;;;8.44;100.00
8075;BME280;4080;42.676;23.372;2023-02-23T22:08:36;95139.97;;;8.39;100.00
8075;BME280;4080;42.676;23.372;2023-02-23T22:11:07;95150.13;;;8.31;100.00
8075;BME280;4080;42.676;23.372;2023-02-23T22:13:35;95147.91;;;8.45;100.00
8075;BME280;4080;42.676;23.372;2023-02-23T22:16:02;95143.44;;;8.45;100.00
8075;BME280;4080;42.676;23.372;2023-02-23T22:18:30;95157.38;;;8.46;100.00
8075;BME280;4080;42.676;23.372;2023-02-23T22:20:57;95129.34;;;8.29;100.00
8075;BME280;4080;42.676;23.372;2023-02-23T22:23:24;95141.28;;;8.37;100.00
8075;BME280;4080;42.676;23.372;2023-02-23T22:25:52;95148.38;;;8.36;100.00
8075;BME280;4080;42.676;23.372;2023-02-23T22:28:19;95149.41;;;8.35;100.00
8075;BME280;4080;42.676;23.372;2023-02-23T22:30:46;95149.94;;;8.37;100.00
8075;BME280;4080;42.676;23.372;2023-02-23T22:33:16;95147.06;;;8.39;100.00
8075;BME280;4080;42.676;23.372;2023-02-23T22:35:45;95151.00;;;8.36;100.00
8075;BME280;4080;42.676;23.372;2023-02-23T22:38:12;95143.28;;;8.30;100.00
8075;BME280;4080;42.676;23.372;2023-02-23T22:40:39;95152.81;;;8.36;100.00
8075;BME280;4080;42.676;23.372;2023-02-23T22:43:08;95141.19;;;8.32;100.00
8075;BME280;4080;42.676;23.372;2023-02-23T22:45:35;95101.75;;;8.00;100.00
8075;BME280;4080;42.676;23.372;2023-02-23T22:48:01;95168.78;;;8.29;100.00
8075;BME280;4080;42.676;23.372;2023-02-23T22:50:30;95144.59;;;8.27;100.00
8075;BME280;4080;42.676;23.372;2023-02-23T22:52:58;95144.25;;;8.24;100.00
8075;BME280;4080;42.676;23.372;2023-02-23T22:55:26;95146.88;;;8.24;100.00
8075;BME280;4080;42.676;23.372;2023-02-23T22:57:53;95138.22;;;8.23;100.00
8075;BME280;4080;42.676;23.372;2023-02-23T23:00:20;95138.81;;;8.30;100.00
8075;BME280;4080;42.676;23.372;2023-02-23T23:02:47;95138.81;;;8.30;100.00
8075;BME280;4080;42.676;23.372;2023-02-23T23:05:14;95141.38;;;8.25;100.00
8075;BME280;4080;42.676;23.372;2023-02-23T23:07:41;95156.94;;;8.27;100.00
8075;BME280;4080;42.676;23.372;2023-02-23T23:10:13;95143.78;;;8.27;100.00
8075;BME280;4080;42.676;23.372;2023-02-23T23:12:39;95151.09;;;8.25;100.00
8075;BME280;4080;42.676;23.372;2023-02-23T23:15:07;95133.72;;;8.19;100.00
8075;BME280;4080;42.676;23.372;2023-02-23T23:17:39;95143.47;;;8.23;100.00
8075;BME280;4080;42.676;23.372;2023-02-23T23:20:08;95138.72;;;8.20;100.00
8075;BME280;4080;42.676;23.372;2023-02-23T23:22:36;95150.25;;;8.19;100.00
8075;BME280;4080;42.676;23.372;2023-02-23T23:25:04;95124.44;;;8.11;100.00
8075;BME280;4080;42.676;23.372;2023-02-23T23:27:41;95151.31;;;8.18;100.00
8075;BME280;4080;42.676;23.372;2023-02-23T23:30:10;95131.91;;;8.24;100.00
8075;BME280;4080;42.676;23.372;2023-02-23T23:32:38;95140.81;;;8.18;100.00
8075;BME280;4080;42.676;23.372;2023-02-23T23:35:05;95132.41;;;8.21;100.00
8075;BME280;4080;42.676;23.372;2023-02-23T23:37:36;95126.06;;;8.17;100.00
8075;BME280;4080;42.676;23.372;2023-02-23T23:40:06;95129.53;;;8.23;100.00
8075;BME280;4080;42.676;23.372;2023-02-23T23:42:40;95130.03;;;8.20;100.00
8075;BME280;4080;42.676;23.372;2023-02-23T23:45:11;95103.34;;;8.01;100.00
8075;BME280;4080;42.676;23.372;2023-02-23T23:47:38;95132.38;;;8.16;100.00
8075;BME280;4080;42.676;23.372;2023-02-23T23:50:05;95124.44;;;8.11;100.00
8075;BME280;4080;42.676;23.372;2023-02-23T23:52:35;95133.97;;;8.17;100.00
8075;BME280;4080;42.676;23.372;2023-02-23T23:55:03;95113.34;;;8.04;100.00
8075;BME280;4080;42.676;23.372;2023-02-23T23:57:31;95113.34;;;8.04;100.00
8075;BME280;4080;42.676;23.372;2023-02-23T23:59:59;95121.06;;;8.16;100.00
